Time;durP1;ratioP1;P1;durP2;ratioP2;P2;SDS_P1;SDS_P2;PMS_P1;PMS_P2;Temp;Humidity;BMP_temperature;BMP_pressure;BME280_temperature;BME280_humidity;BME280_pressure;Samples;Min_cycle;Max_cycle;Signal;HPM_P1;HPM_P2
2023/08/03 00:00:01;;;;;;;2.17;1.47;;;;;;;19.37;70.97;98999.88;5044308;28;20245;-70
2023/08/03 00:02:39;;;;;;;3.00;1.50;;;;;;;19.38;70.84;99009.41;5043929;28;20230;-71
2023/08/03 00:05:06;;;;;;;3.53;1.50;;;;;;;19.43;70.77;99018.84;5041398;28;20207;-71
2023/08/03 00:07:33;;;;;;;1.80;1.40;;;;;;;19.43;70.87;99022.28;5043339;28;20211;-71
2023/08/03 00:10:00;;;;;;;2.13;1.43;;;;;;;19.43;70.42;99021.50;5042278;28;20239;-71
2023/08/03 00:12:26;;;;;;;2.03;1.50;;;;;;;19.51;70.46;99025.53;5041033;28;20214;-71
2023/08/03 00:14:53;;;;;;;4.23;1.70;;;;;;;19.56;69.68;99036.47;5047626;28;20661;-71
2023/08/03 00:17:19;;;;;;;2.50;1.60;;;;;;;19.57;69.58;99032.63;5042736;28;20294;-71
2023/08/03 00:19:47;;;;;;;3.33;1.80;;;;;;;19.58;69.49;99039.47;5043044;28;20298;-71
2023/08/03 00:22:13;;;;;;;2.10;1.30;;;;;;;19.64;69.78;99051.19;5043392;28;20211;-71
2023/08/03 00:24:40;;;;;;;1.63;1.17;;;;;;;19.66;69.01;99054.19;5039763;28;20207;-71
2023/08/03 00:27:06;;;;;;;1.73;1.00;;;;;;;19.69;68.92;99053.34;5043033;28;20275;-70
2023/08/03 00:29:33;;;;;;;3.63;1.37;;;;;;;19.72;68.39;99063.19;5042973;28;20716;-71
2023/08/03 00:32:01;;;;;;;2.73;1.30;;;;;;;19.76;68.79;99060.44;5027353;28;20709;-71
2023/08/03 00:34:28;;;;;;;2.90;1.27;;;;;;;19.77;68.74;99064.63;5043071;28;20249;-71
2023/08/03 00:36:56;;;;;;;2.17;1.00;;;;;;;19.78;68.35;99068.81;5040193;28;20315;-71
2023/08/03 00:39:24;;;;;;;1.70;1.60;;;;;;;19.78;68.33;99074.16;5023279;28;20242;-71
2023/08/03 00:41:51;;;;;;;1.70;1.20;;;;;;;19.80;68.40;99082.50;5021638;28;20218;-71
2023/08/03 00:44:18;;;;;;;2.73;1.20;;;;;;;19.85;67.94;99082.00;5040163;28;20200;-71
2023/08/03 00:46:44;;;;;;;7.10;1.37;;;;;;;19.88;67.71;99076.53;5025633;28;20211;-71
2023/08/03 00:49:11;;;;;;;1.50;1.20;;;;;;;19.93;68.19;99077.97;5041093;28;20223;-71
2023/08/03 00:51:38;;;;;;;3.00;1.27;;;;;;;19.91;67.76;99080.31;5021666;28;20200;-71
2023/08/03 00:54:07;;;;;;;2.67;1.20;;;;;;;19.90;67.34;99073.44;5022086;28;20212;-71
2023/08/03 00:56:33;;;;;;;2.23;1.17;;;;;;;19.91;67.74;99072.25;5020244;28;20474;-72
2023/08/03 00:59:01;;;;;;;3.90;1.50;;;;;;;19.87;67.62;99071.63;5038559;28;20211;-71
2023/08/03 01:01:27;;;;;;;1.83;1.10;;;;;;;19.84;67.67;99083.19;5036833;28;20207;-71
2023/08/03 01:03:55;;;;;;;2.93;1.40;;;;;;;19.81;67.69;99094.75;5038998;28;20215;-71
2023/08/03 01:06:21;;;;;;;4.07;1.43;;;;;;;19.82;67.85;99090.91;5022418;28;20203;-71
2023/08/03 01:08:47;;;;;;;1.70;1.27;;;;;;;19.75;67.70;99104.47;5035323;28;20239;-71
2023/08/03 01:11:15;;;;;;;2.90;1.60;;;;;;;19.72;67.74;99105.31;5037412;28;20234;-71
2023/08/03 01:13:42;;;;;;;1.67;1.20;;;;;;;19.67;67.95;99113.84;5039848;28;20218;-71
2023/08/03 01:16:09;;;;;;;1.77;1.07;;;;;;;19.62;68.05;99115.09;5039660;28;20211;-71
2023/08/03 01:18:36;;;;;;;3.57;1.50;;;;;;;19.54;68.21;99121.81;5022081;28;20242;-71
2023/08/03 01:21:04;;;;;;;2.00;1.20;;;;;;;19.51;68.14;99119.22;5022034;28;20309;-71
2023/08/03 01:23:31;;;;;;;1.70;1.50;;;;;;;19.50;68.15;99126.50;5038780;28;20507;-71
2023/08/03 01:25:57;;;;;;;2.23;1.30;;;;;;;19.45;68.47;99123.59;5037240;28;20443;-71
2023/08/03 01:28:24;;;;;;;2.30;1.30;;;;;;;19.39;68.89;99122.56;5039059;28;20226;-71
2023/08/03 01:30:50;;;;;;;1.53;1.13;;;;;;;19.37;68.75;99120.34;5037588;28;20857;-71
2023/08/03 01:33:16;;;;;;;3.33;1.70;;;;;;;19.35;69.08;99125.34;5037730;28;20215;-71
2023/08/03 01:35:43;;;;;;;1.97;1.30;;;;;;;19.28;69.05;99125.50;5021253;28;20238;-71
2023/08/03 01:38:13;;;;;;;2.17;1.33;;;;;;;19.32;68.86;99125.41;5039507;28;20534;-71
2023/08/03 01:40:41;;;;;;;1.70;1.27;;;;;;;19.30;68.78;99123.16;5040068;28;20207;-71
2023/08/03 01:43:07;;;;;;;4.03;1.20;;;;;;;19.29;69.16;99128.91;5038064;28;20220;-71
2023/08/03 01:45:34;;;;;;;1.53;1.17;;;;;;;19.25;69.29;99128.28;5019169;28;20424;-71
2023/08/03 01:48:00;;;;;;;2.40;1.20;;;;;;;19.24;69.47;99130.19;5019744;28;20222;-71
2023/08/03 01:50:27;;;;;;;3.80;1.10;;;;;;;19.24;69.61;99126.78;5035108;28;20223;-71
2023/08/03 01:52:53;;;;;;;4.60;1.60;;;;;;;19.26;69.50;99135.13;5038216;28;20199;-71
2023/08/03 01:55:19;;;;;;;6.10;1.33;;;;;;;19.27;69.45;99136.63;5020505;28;20200;-72
2023/08/03 01:57:47;;;;;;;3.23;1.10;;;;;;;19.29;69.67;99132.38;5040401;28;20222;-71
2023/08/03 02:00:15;;;;;;;2.10;1.30;;;;;;;19.29;69.34;99136.94;5036846;28;20230;-71
2023/08/03 02:02:42;;;;;;;3.43;1.50;;;;;;;19.33;69.39;99137.63;5039124;28;20461;-71
2023/08/03 02:05:09;;;;;;;1.90;1.30;;;;;;;19.33;69.18;99145.66;5037701;28;20203;-71
2023/08/03 02:07:44;;;;;;;2.70;1.30;;;;;;;19.41;69.09;99141.66;5039184;28;20209;-71
2023/08/03 02:10:11;;;;;;;1.43;1.20;;;;;;;19.41;69.05;99147.00;5019890;28;20218;-71
2023/08/03 02:12:37;;;;;;;3.30;1.40;;;;;;;19.39;68.84;99146.66;5039620;28;20199;-71
2023/08/03 02:15:07;;;;;;;3.47;1.30;;;;;;;19.41;68.88;99145.06;5038627;28;20572;-71
2023/08/03 02:17:33;;;;;;;3.93;1.60;;;;;;;19.41;68.67;99150.44;5022260;28;20579;-71
2023/08/03 02:20:00;;;;;;;2.43;1.67;;;;;;;19.37;68.79;99147.09;5020010;28;20234;-71
2023/08/03 02:22:27;;;;;;;4.90;1.70;;;;;;;19.37;68.69;99149.78;5016439;28;20223;-71
2023/08/03 02:24:53;;;;;;;3.73;1.23;;;;;;;19.35;68.54;99156.72;5018111;28;20218;-71
2023/08/03 02:27:19;;;;;;;2.23;1.30;;;;;;;19.37;68.65;99155.13;5036977;28;20209;-71
2023/08/03 02:29:45;;;;;;;2.27;1.30;;;;;;;19.34;68.93;99155.19;5040241;28;20472;-71
2023/08/03 02:32:14;;;;;;;4.13;1.60;;;;;;;19.34;68.64;99155.94;5020166;28;20298;-71
2023/08/03 02:34:42;;;;;;;4.53;1.40;;;;;;;19.31;68.76;99148.00;5017849;28;20207;-71
2023/08/03 02:37:09;;;;;;;3.77;1.27;;;;;;;19.29;68.80;99140.41;5017566;28;21003;-71
2023/08/03 02:39:35;;;;;;;4.10;1.60;;;;;;;19.31;68.42;99156.78;5035169;28;20297;-71
2023/08/03 02:42:04;;;;;;;1.80;1.43;;;;;;;19.25;68.76;99149.69;5019962;28;20261;-71
2023/08/03 02:44:36;;;;;;;4.10;1.40;;;;;;;19.26;68.33;99153.88;5019947;28;20276;-71
2023/08/03 02:47:03;;;;;;;2.77;1.27;;;;;;;19.23;68.77;99146.66;5021170;28;20207;-71
2023/08/03 02:49:31;;;;;;;3.20;1.30;;;;;;;19.17;68.69;99150.97;5035469;28;20744;-71
2023/08/03 02:52:01;;;;;;;2.70;1.40;;;;;;;19.13;68.34;99155.66;5026171;28;20203;-71
2023/08/03 02:54:39;;;;;;;5.10;1.40;;;;;;;19.00;68.77;99152.13;5039574;28;20195;-71
2023/08/03 02:57:06;;;;;;;6.27;1.50;;;;;;;18.96;68.60;99160.22;5039321;28;20286;-71
2023/08/03 02:59:33;;;;;;;3.77;2.37;;;;;;;18.92;68.86;99156.88;5019922;28;20231;-71
2023/08/03 03:01:59;;;;;;;2.83;1.30;;;;;;;18.87;68.54;99154.69;5037960;28;20368;-71
2023/08/03 03:04:33;;;;;;;3.37;1.20;;;;;;;18.82;68.53;99157.84;5020396;28;20227;-71
2023/08/03 03:06:59;;;;;;;2.73;1.10;;;;;;;18.77;68.67;99162.91;5038395;28;20207;-71
2023/08/03 03:09:25;;;;;;;5.50;1.37;;;;;;;18.71;68.83;99164.56;5018154;28;20306;-71
2023/08/03 03:11:55;;;;;;;6.73;1.40;;;;;;;18.66;68.88;99163.16;5018646;28;20569;-70
2023/08/03 03:14:24;;;;;;;8.23;1.70;;;;;;;18.62;68.89;99172.41;5012546;28;20207;-71
2023/08/03 03:16:51;;;;;;;2.57;1.30;;;;;;;18.55;69.37;99175.97;5020895;28;20524;-71
2023/08/03 03:19:19;;;;;;;3.07;1.43;;;;;;;18.50;69.11;99173.78;5016772;28;20227;-71
2023/08/03 03:21:48;;;;;;;6.57;1.73;;;;;;;18.50;69.33;99175.69;5020482;28;20700;-71
2023/08/03 03:24:14;;;;;;;2.97;1.40;;;;;;;18.44;69.29;99172.00;5035012;28;20734;-72
2023/08/03 03:26:41;;;;;;;3.40;1.23;;;;;;;18.42;69.33;99174.34;5037368;28;20215;-71
2023/08/03 03:29:07;;;;;;;3.90;1.20;;;;;;;18.39;69.58;99180.50;5033547;28;20269;-72
2023/08/03 03:31:33;;;;;;;3.17;1.20;;;;;;;18.36;69.33;99182.06;5036067;28;20229;-71
2023/08/03 03:34:02;;;;;;;3.97;1.37;;;;;;;18.33;69.43;99182.91;5037306;28;20195;-71
2023/08/03 03:36:30;;;;;;;3.77;1.47;;;;;;;18.30;69.37;99181.00;5020605;28;20206;-71
2023/08/03 03:38:57;;;;;;;3.63;1.40;;;;;;;18.24;69.34;99177.31;5016990;28;20724;-71
2023/08/03 03:41:24;;;;;;;4.30;1.67;;;;;;;18.20;69.60;99184.63;5036309;28;20681;-71
2023/08/03 03:43:51;;;;;;;3.17;1.30;;;;;;;18.15;69.75;99179.00;5034987;28;20222;-71
2023/08/03 03:46:17;;;;;;;3.00;1.50;;;;;;;18.09;69.82;99177.97;5036408;28;20211;-71
2023/08/03 03:48:44;;;;;;;2.00;1.00;;;;;;;18.07;70.05;99178.34;5034808;28;20223;-71
2023/08/03 03:51:10;;;;;;;3.67;1.30;;;;;;;18.04;69.83;99181.09;5021668;28;20222;-71
2023/08/03 03:53:39;;;;;;;5.20;1.50;;;;;;;18.00;69.87;99189.19;5018172;28;20219;-71
2023/08/03 03:56:12;;;;;;;2.77;1.27;;;;;;;17.97;69.96;99189.25;5020178;28;20553;-71
2023/08/03 03:58:39;;;;;;;3.40;1.30;;;;;;;17.93;70.12;99185.88;5035550;28;20246;-71
2023/08/03 04:01:05;;;;;;;3.40;1.17;;;;;;;17.90;70.18;99198.13;5018179;28;20230;-71
2023/08/03 04:03:32;;;;;;;3.40;1.53;;;;;;;17.88;70.22;99194.34;5035227;28;20712;-71
2023/08/03 04:06:03;;;;;;;3.77;1.30;;;;;;;17.88;70.59;99194.34;5038517;28;20229;-71
2023/08/03 04:08:30;;;;;;;4.90;1.50;;;;;;;17.89;70.58;99188.59;5036059;28;20199;-71
2023/08/03 04:10:56;;;;;;;2.97;1.00;;;;;;;17.91;70.71;99188.94;5019278;28;20207;-71
2023/08/03 04:13:24;;;;;;;5.73;1.30;;;;;;;17.93;70.79;99191.97;5037186;28;20495;-71
2023/08/03 04:15:50;;;;;;;6.50;1.40;;;;;;;17.96;70.76;99193.09;5019766;28;20230;-71
2023/08/03 04:18:16;;;;;;;8.07;1.63;;;;;;;17.97;71.03;99189.25;5036412;28;20199;-71
2023/08/03 04:20:43;;;;;;;4.17;1.57;;;;;;;17.99;70.82;99193.00;5017991;28;20207;-71
2023/08/03 04:23:09;;;;;;;5.37;2.47;;;;;;;18.03;70.69;99192.94;5031757;28;20215;-71
2023/08/03 04:25:36;;;;;;;4.17;1.40;;;;;;;18.07;70.75;99201.66;5015002;28;20302;-71
2023/08/03 04:28:13;;;;;;;3.67;1.60;;;;;;;18.11;70.82;99199.69;5037950;28;20222;-72
2023/08/03 04:30:41;;;;;;;5.33;1.40;;;;;;;18.14;70.51;99196.19;5019595;28;20210;-71
2023/08/03 04:33:07;;;;;;;3.53;1.60;;;;;;;18.18;70.52;99192.31;5040960;28;20691;-71
2023/08/03 04:35:37;;;;;;;2.20;1.33;;;;;;;18.19;70.47;99191.13;5010229;28;20291;-71
2023/08/03 04:38:10;;;;;;;3.37;1.47;;;;;;;18.19;70.38;99188.47;5019958;28;20301;-71
2023/08/03 04:40:39;;;;;;;4.27;1.37;;;;;;;18.22;70.29;99192.97;5020932;28;20298;-71
2023/08/03 04:43:06;;;;;;;4.90;1.60;;;;;;;18.25;70.63;99186.81;5016488;28;20696;-71
2023/08/03 04:45:33;;;;;;;4.30;1.13;;;;;;;18.30;70.48;99193.59;5019290;28;20199;-71
2023/08/03 04:48:01;;;;;;;3.67;1.53;;;;;;;18.35;70.44;99198.50;5022934;28;20199;-71
2023/08/03 04:50:28;;;;;;;3.10;1.40;;;;;;;18.42;70.28;99193.06;5014183;28;20219;-71
2023/08/03 04:52:54;;;;;;;4.10;1.43;;;;;;;18.50;70.35;99192.50;5021126;28;20204;-71
2023/08/03 04:55:22;;;;;;;7.50;1.63;;;;;;;18.58;69.84;99199.19;5017546;28;20214;-71
2023/08/03 04:57:48;;;;;;;3.67;1.20;;;;;;;18.66;69.83;99195.25;5038743;28;20211;-71
2023/08/03 05:00:17;;;;;;;4.00;1.33;;;;;;;18.76;69.50;99194.28;5017196;28;20535;-71
2023/08/03 05:02:44;;;;;;;6.60;1.30;;;;;;;18.89;69.21;99199.75;5031043;28;20203;-71
2023/08/03 05:05:12;;;;;;;3.57;1.30;;;;;;;18.99;69.44;99196.84;5038670;28;20219;-71
2023/08/03 05:07:38;;;;;;;3.17;1.77;;;;;;;19.16;68.46;99197.63;5022013;28;20204;-71
2023/08/03 05:10:05;;;;;;;3.50;1.30;;;;;;;19.31;67.91;99204.22;5042569;28;20346;-71
2023/08/03 05:12:31;;;;;;;7.27;1.67;;;;;;;19.47;68.35;99206.91;5042850;28;20211;-71
2023/08/03 05:14:58;;;;;;;2.93;1.30;;;;;;;19.65;67.37;99204.56;5037144;28;20309;-71
2023/08/03 05:17:24;;;;;;;5.13;1.50;;;;;;;19.83;66.78;99207.59;5040140;28;20243;-71
2023/08/03 05:19:51;;;;;;;5.90;1.60;;;;;;;19.96;66.90;99203.03;5040396;28;20588;-71
2023/08/03 05:22:19;;;;;;;4.40;1.20;;;;;;;20.08;65.85;99200.47;5040803;28;20221;-71
2023/08/03 05:24:45;;;;;;;1.37;0.97;;;;;;;20.19;65.31;99197.53;5042294;28;20219;-71
2023/08/03 05:27:11;;;;;;;4.00;1.20;;;;;;;20.28;65.36;99200.34;5042270;28;20207;-71
2023/08/03 05:29:38;;;;;;;6.10;1.30;;;;;;;20.37;65.33;99198.56;5040237;28;20215;-71
2023/08/03 05:32:04;;;;;;;3.97;1.57;;;;;;;20.39;66.37;99206.91;5041531;28;20290;-71
2023/08/03 05:34:31;;;;;;;6.10;1.43;;;;;;;20.43;66.21;99201.50;5037338;28;20210;-71
2023/08/03 05:36:58;;;;;;;5.33;1.60;;;;;;;20.45;63.46;99204.50;5042675;28;20210;-71
2023/08/03 05:39:27;;;;;;;4.00;2.07;;;;;;;20.47;63.96;99208.25;5041588;28;20223;-71
2023/08/03 05:41:53;;;;;;;2.57;1.30;;;;;;;20.52;65.01;99205.06;5042614;28;20562;-71
2023/08/03 05:44:20;;;;;;;3.40;1.27;;;;;;;20.56;62.82;99203.03;5040330;28;20684;-71
2023/08/03 05:46:46;;;;;;;5.17;1.50;;;;;;;20.59;62.35;99210.22;5039062;28;20763;-71
2023/08/03 05:49:13;;;;;;;4.57;1.30;;;;;;;20.65;62.32;99197.78;5040449;28;20538;-71
2023/08/03 05:51:40;;;;;;;3.17;1.40;;;;;;;20.69;63.19;99200.38;5041021;28;20203;-71
2023/08/03 05:54:10;;;;;;;3.13;1.30;;;;;;;20.73;61.69;99203.69;5038946;28;20246;-71
2023/08/03 05:56:38;;;;;;;5.43;1.20;;;;;;;20.79;60.77;99196.63;5039513;28;20199;-72
2023/08/03 05:59:05;;;;;;;5.50;1.00;;;;;;;20.85;60.27;99203.00;5036984;28;20223;-71
2023/08/03 06:01:31;;;;;;;4.53;1.13;;;;;;;20.86;62.07;99205.22;5040403;28;20207;-70
2023/08/03 06:03:57;;;;;;;4.53;1.03;;;;;;;20.95;61.11;99200.03;5048317;28;20234;-70
2023/08/03 06:06:23;;;;;;;6.10;1.23;;;;;;;21.01;59.47;99200.25;5042673;28;20713;-70
2023/08/03 06:08:51;;;;;;;5.03;1.13;;;;;;;21.06;58.24;99207.78;5043068;28;20238;-70
2023/08/03 06:11:20;;;;;;;4.03;1.00;;;;;;;21.12;57.49;99208.75;5042818;28;20213;-70
2023/08/03 06:13:48;;;;;;;2.40;1.40;;;;;;;21.20;60.75;99205.41;5040789;28;20302;-70
2023/08/03 06:16:16;;;;;;;3.70;1.00;;;;;;;21.22;58.50;99199.63;5041074;28;20681;-70
2023/08/03 06:18:47;;;;;;;3.50;0.97;;;;;;;21.29;57.55;99199.41;5037582;28;20238;-69
2023/08/03 06:21:14;;;;;;;1.90;1.20;;;;;;;21.29;57.88;99202.09;5039741;28;20206;-70
2023/08/03 06:23:43;;;;;;;1.80;0.70;;;;;;;21.37;56.07;99203.38;5040796;28;20623;-70
2023/08/03 06:26:12;;;;;;;1.23;0.80;;;;;;;21.43;56.94;99201.66;5041035;28;20211;-70
2023/08/03 06:28:39;;;;;;;2.63;0.80;;;;;;;21.47;55.44;99196.94;5039813;28;20226;-71
2023/08/03 06:31:13;;;;;;;2.93;0.80;;;;;;;21.55;57.50;99203.56;5040610;28;20199;-71
2023/08/03 06:33:39;;;;;;;3.23;1.00;;;;;;;21.58;55.44;99206.16;5040108;28;20199;-70
2023/08/03 06:36:06;;;;;;;3.27;0.97;;;;;;;21.62;54.84;99204.13;5041304;28;20207;-71
2023/08/03 06:38:33;;;;;;;2.17;0.80;;;;;;;21.68;53.88;99207.03;5038933;28;20230;-70
2023/08/03 06:40:59;;;;;;;2.53;0.70;;;;;;;21.76;55.09;99203.69;5039041;28;20215;-70
2023/08/03 06:43:25;;;;;;;4.20;0.97;;;;;;;21.83;56.38;99214.22;5037554;28;20207;-70
2023/08/03 06:45:52;;;;;;;3.87;0.90;;;;;;;21.87;55.21;99212.16;5040297;28;20210;-70
2023/08/03 06:48:19;;;;;;;1.80;0.60;;;;;;;21.95;55.46;99218.06;5039549;28;20211;-70
2023/08/03 06:50:46;;;;;;;3.40;1.10;;;;;;;22.02;54.29;99221.28;5037816;28;20680;-70
2023/08/03 06:53:13;;;;;;;3.67;1.10;;;;;;;22.08;53.74;99226.81;5040018;28;20210;-70
2023/08/03 06:55:40;;;;;;;2.40;1.03;;;;;;;22.14;53.08;99215.09;5036663;28;20198;-70
2023/08/03 06:58:06;;;;;;;4.73;0.90;;;;;;;22.18;53.73;99218.44;5043584;28;20205;-70
2023/08/03 07:00:33;;;;;;;2.97;0.73;;;;;;;22.21;52.70;99222.19;5037218;28;20225;-70
2023/08/03 07:02:59;;;;;;;3.70;1.10;;;;;;;22.30;52.69;99225.69;5040623;28;20214;-70
2023/08/03 07:05:27;;;;;;;5.60;0.97;;;;;;;22.30;53.85;99233.03;5037632;28;20378;-71
2023/08/03 07:07:53;;;;;;;4.13;1.10;;;;;;;22.24;51.65;99216.69;5039223;28;20207;-71
2023/08/03 07:10:19;;;;;;;1.97;0.77;;;;;;;22.27;52.90;99223.13;5040827;28;20222;-71
2023/08/03 07:12:46;;;;;;;1.83;1.00;;;;;;;22.37;53.44;99233.53;5039247;28;20199;-70
2023/08/03 07:15:12;;;;;;;2.43;0.83;;;;;;;22.42;52.91;99237.59;5039479;28;20214;-71
2023/08/03 07:17:38;;;;;;;7.77;0.90;;;;;;;22.48;52.60;99230.50;5038494;28;20274;-71
2023/08/03 07:20:08;;;;;;;2.33;1.20;;;;;;;22.55;52.56;99228.31;5040373;28;20250;-70
2023/08/03 07:22:36;;;;;;;3.37;0.93;;;;;;;22.64;52.75;99241.84;5041671;28;20210;-71
2023/08/03 07:25:03;;;;;;;4.10;0.87;;;;;;;22.69;51.26;99252.03;5036951;28;20578;-71
2023/08/03 07:27:29;;;;;;;3.77;1.00;;;;;;;22.70;51.62;99245.47;5037678;28;20260;-71
2023/08/03 07:29:56;;;;;;;3.43;0.80;;;;;;;22.72;49.80;99259.22;5037129;28;20230;-71
2023/08/03 07:32:21;;;;;;;4.30;1.00;;;;;;;22.83;50.85;99256.94;5036808;28;20225;-71
2023/08/03 07:34:47;;;;;;;1.90;0.80;;;;;;;22.93;52.96;99253.06;5036931;28;20677;-71
2023/08/03 07:37:14;;;;;;;5.35;1.20;;;;;;;23.02;49.57;99263.91;5041296;28;20202;-71
2023/08/03 07:39:41;;;;;;;3.35;1.00;;;;;;;23.17;50.31;99273.00;5039395;28;20225;-71
2023/08/03 07:42:08;;;;;;;4.10;1.02;;;;;;;23.38;50.39;99271.47;5037359;28;20217;-71
2023/08/03 07:44:34;;;;;;;2.58;1.05;;;;;;;23.55;48.39;99291.59;5039065;28;20255;-71
2023/08/03 07:47:01;;;;;;;3.78;1.05;;;;;;;23.65;49.60;99285.06;5037141;28;20203;-71
2023/08/03 07:49:27;;;;;;;3.28;0.93;;;;;;;23.72;49.39;99292.84;5038096;28;20231;-71
2023/08/03 07:51:53;;;;;;;2.30;0.80;;;;;;;23.69;48.27;99285.69;5038368;28;20211;-71
2023/08/03 07:54:19;;;;;;;4.70;0.98;;;;;;;23.73;50.56;99282.84;5038665;28;20688;-71
2023/08/03 07:56:47;;;;;;;1.88;0.77;;;;;;;23.75;49.21;99295.41;5040382;28;20692;-71
2023/08/03 07:59:13;;;;;;;3.05;0.80;;;;;;;23.85;49.38;99286.16;5039304;28;20404;-71
2023/08/03 08:01:40;;;;;;;1.23;0.70;;;;;;;23.83;47.63;99295.16;5040869;28;20221;-71
2023/08/03 08:04:06;;;;;;;1.88;0.90;;;;;;;23.75;47.30;99294.66;5044290;28;20294;-71
2023/08/03 08:06:32;;;;;;;2.35;0.73;;;;;;;23.74;48.13;99299.31;5039879;28;20671;-71
2023/08/03 08:08:59;;;;;;;3.78;0.80;;;;;;;23.70;48.25;99290.59;5040111;28;20241;-71
2023/08/03 08:11:25;;;;;;;0.88;0.55;;;;;;;23.74;47.11;99295.88;5042999;28;20211;-71
2023/08/03 08:13:53;;;;;;;1.83;0.68;;;;;;;23.67;48.47;99306.91;5042370;28;20716;-71
2023/08/03 08:16:19;;;;;;;1.95;0.65;;;;;;;23.70;49.65;99296.00;5040898;28;20227;-71
2023/08/03 08:18:45;;;;;;;4.63;0.60;;;;;;;23.73;47.20;99301.69;5041555;28;20238;-71
2023/08/03 08:21:13;;;;;;;2.35;0.75;;;;;;;23.72;47.27;99298.25;5041909;28;20203;-71
2023/08/03 08:23:40;;;;;;;3.38;0.68;;;;;;;23.70;48.17;99311.44;5044119;28;20565;-71
2023/08/03 08:26:10;;;;;;;1.45;0.60;;;;;;;23.79;48.43;99312.19;5039156;28;20224;-71
2023/08/03 08:28:37;;;;;;;2.00;0.70;;;;;;;23.83;47.93;99303.25;5043227;28;20234;-71
2023/08/03 08:31:04;;;;;;;4.85;0.93;;;;;;;23.96;48.35;99310.03;5040186;28;20200;-71
2023/08/03 08:33:31;;;;;;;2.58;0.73;;;;;;;23.98;47.04;99315.00;5039577;28;20203;-70
2023/08/03 08:35:57;;;;;;;2.40;0.73;;;;;;;24.06;47.60;99314.28;5042362;28;20207;-70
2023/08/03 08:38:23;;;;;;;1.40;0.70;;;;;;;24.14;46.52;99312.03;5041348;28;20210;-71
2023/08/03 08:40:50;;;;;;;4.13;0.50;;;;;;;24.29;46.68;99323.75;5041752;28;20210;-70
2023/08/03 08:43:18;;;;;;;3.33;1.02;;;;;;;24.46;46.77;99331.09;5039834;28;20607;-71
2023/08/03 08:45:45;;;;;;;4.07;0.95;;;;;;;24.59;47.10;99331.00;5039200;28;20311;-70
2023/08/03 08:48:13;;;;;;;3.90;0.70;;;;;;;24.57;44.64;99331.44;5043095;28;20204;-70
2023/08/03 08:50:40;;;;;;;2.63;0.68;;;;;;;24.68;46.42;99333.72;5038217;28;20195;-70
2023/08/03 08:53:07;;;;;;;1.52;0.70;;;;;;;24.84;45.97;99344.22;5039817;28;21084;-71
2023/08/03 08:55:33;;;;;;;7.93;1.10;;;;;;;24.89;44.94;99347.06;5042867;28;20226;-71
2023/08/03 08:58:00;;;;;;;5.22;1.50;;;;;;;24.99;45.74;99345.09;5041350;28;20289;-71
2023/08/03 09:00:27;;;;;;;3.92;0.80;;;;;;;25.07;44.79;99343.63;5040889;28;20215;-71
2023/08/03 09:02:55;;;;;;;1.27;0.60;;;;;;;25.16;45.70;99340.88;5043337;28;20211;-71
2023/08/03 09:05:25;;;;;;;2.15;0.65;;;;;;;25.28;44.72;99356.94;5041383;28;20301;-71
2023/08/03 09:08:10;;;;;;;3.03;0.60;;;;;;;25.15;43.50;99345.53;5044663;28;20206;-71
2023/08/03 09:10:50;;;;;;;2.40;0.55;;;;;;;25.16;44.18;99346.28;5043076;28;20548;-71
2023/08/03 09:13:27;;;;;;;2.92;0.50;;;;;;;25.15;44.42;99348.25;5041118;28;20209;-71
2023/08/03 09:15:54;;;;;;;2.17;0.50;;;;;;;25.01;43.79;99343.47;5038996;28;20192;-70
2023/08/03 09:18:21;;;;;;;1.77;0.60;;;;;;;24.96;45.48;99352.16;5039059;28;20203;-70
2023/08/03 09:20:49;;;;;;;2.80;0.75;;;;;;;24.80;43.72;99340.91;5040721;28;20212;-70
2023/08/03 09:23:28;;;;;;;2.65;0.70;;;;;;;24.81;44.26;99351.25;5042511;28;20203;-70
2023/08/03 09:25:54;;;;;;;1.20;0.40;;;;;;;24.67;44.80;99359.22;5042365;28;20620;-70
2023/08/03 09:28:20;;;;;;;3.63;0.70;;;;;;;24.50;45.76;99371.47;5038298;28;20199;-70
2023/08/03 09:30:50;;;;;;;1.70;0.70;;;;;;;24.48;46.20;99353.03;5041657;28;20273;-70
2023/08/03 09:33:17;;;;;;;1.10;0.45;;;;;;;24.52;44.61;99358.25;5037657;28;20289;-70
2023/08/03 09:35:43;;;;;;;3.70;0.50;;;;;;;24.67;45.12;99367.31;5039404;28;20691;-70
2023/08/03 09:38:23;;;;;;;1.77;0.50;;;;;;;24.58;43.52;99362.66;5041293;28;20708;-70
2023/08/03 09:40:50;;;;;;;2.00;0.60;;;;;;;24.77;44.84;99366.13;5040059;28;20218;-71
2023/08/03 09:43:18;;;;;;;2.20;0.50;;;;;;;24.80;43.62;99354.41;5038879;28;20216;-70
2023/08/03 09:45:46;;;;;;;5.53;0.70;;;;;;;24.97;45.05;99359.06;5038812;28;20245;-71
2023/08/03 09:48:13;;;;;;;2.22;0.40;;;;;;;24.94;43.73;99359.97;5042847;28;20290;-71
2023/08/03 09:50:40;;;;;;;1.80;0.40;;;;;;;25.04;43.80;99363.41;5046688;28;20609;-71
2023/08/03 09:53:15;;;;;;;0.70;0.45;;;;;;;25.04;44.38;99355.31;5045730;28;20571;-70
2023/08/03 09:55:49;;;;;;;2.13;0.40;;;;;;;25.03;43.25;99373.47;5032002;28;20238;-70
2023/08/03 09:58:19;;;;;;;2.00;0.60;;;;;;;24.98;43.77;99370.63;5039649;28;20195;-71
2023/08/03 10:00:47;;;;;;;1.55;0.40;;;;;;;25.08;43.64;99361.31;5034385;28;20206;-70
2023/08/03 10:03:18;;;;;;;3.03;0.80;;;;;;;25.10;42.99;99377.81;5035376;28;20200;-71
2023/08/03 10:05:50;;;;;;;1.35;0.40;;;;;;;25.08;42.11;99375.56;5018703;28;20281;-71
2023/08/03 10:08:26;;;;;;;1.55;0.40;;;;;;;25.18;43.83;99382.44;5041470;28;20320;-71
2023/08/03 10:10:59;;;;;;;1.38;0.50;;;;;;;25.27;42.77;99381.75;5039792;28;20214;-71
2023/08/03 10:13:28;;;;;;;1.27;0.20;;;;;;;25.15;43.50;99383.38;5040777;28;20659;-71
2023/08/03 10:15:55;;;;;;;1.98;0.80;;;;;;;25.23;42.75;99383.81;5040631;28;20203;-71
2023/08/03 10:18:21;;;;;;;3.00;0.32;;;;;;;25.28;43.60;99389.38;5039679;28;20214;-71
2023/08/03 10:20:48;;;;;;;1.25;0.47;;;;;;;25.27;43.45;99387.88;5039989;28;20203;-71
2023/08/03 10:23:17;;;;;;;3.28;0.60;;;;;;;25.23;44.24;99389.97;5042414;28;20838;-71
2023/08/03 10:25:51;;;;;;;1.13;0.60;;;;;;;25.11;42.40;99401.69;5036516;28;20220;-71
2023/08/03 10:28:19;;;;;;;1.98;0.50;;;;;;;25.05;42.20;99387.28;5039090;28;20249;-70
2023/08/03 10:31:03;;;;;;;2.20;0.40;;;;;;;25.17;43.16;99388.34;5041689;28;20203;-71
2023/08/03 10:34:15;;;;;;;1.25;0.40;;;;;;;25.10;42.76;99396.72;5039530;28;20210;-70
2023/08/03 10:36:46;;;;;;;2.35;0.40;;;;;;;25.06;42.78;99393.41;5038789;28;20320;-71
2023/08/03 10:39:16;;;;;;;1.15;0.50;;;;;;;25.24;44.61;99413.09;5040078;28;20228;-70
2023/08/03 10:41:44;;;;;;;1.15;0.45;;;;;;;25.25;43.28;99403.81;5037034;28;20609;-71
2023/08/03 10:44:27;;;;;;;1.25;0.30;;;;;;;25.15;42.21;99404.22;5040850;28;20231;-71
2023/08/03 10:46:55;;;;;;;2.67;0.57;;;;;;;25.10;42.83;99410.22;5040306;28;20794;-70
2023/08/03 10:49:50;;;;;;;0.47;0.40;;;;;;;25.17;43.52;99407.25;5037676;28;20261;-70
2023/08/03 10:52:21;;;;;;;0.65;0.30;;;;;;;25.22;44.05;99414.75;5039482;28;20210;-70
2023/08/03 10:54:48;;;;;;;0.50;0.40;;;;;;;25.24;43.47;99421.19;5040474;28;20707;-70
2023/08/03 10:57:19;;;;;;;1.13;0.90;;;;;;;25.15;44.18;99429.31;5042533;28;20207;-70
2023/08/03 10:59:48;;;;;;;1.80;0.40;;;;;;;25.13;43.20;99420.88;5039389;28;20805;-71
2023/08/03 11:02:18;;;;;;;1.17;0.40;;;;;;;25.08;42.70;99418.78;5040212;28;20845;-71
2023/08/03 11:04:45;;;;;;;1.50;0.40;;;;;;;25.05;43.35;99416.22;5021848;28;20216;-70
2023/08/03 11:07:13;;;;;;;2.35;0.98;;;;;;;25.12;44.35;99410.53;5038229;28;20261;-71
2023/08/03 11:09:39;;;;;;;0.55;0.40;;;;;;;25.04;42.73;99422.84;5038780;28;20235;-71
2023/08/03 11:12:07;;;;;;;2.13;0.90;;;;;;;24.96;42.42;99438.59;5040648;28;20212;-70
2023/08/03 11:14:35;;;;;;;2.17;0.38;;;;;;;24.72;42.10;99432.25;5039841;28;20203;-71
2023/08/03 11:17:03;;;;;;;1.38;0.38;;;;;;;24.62;42.17;99441.56;5039287;28;20214;-71
2023/08/03 11:19:37;;;;;;;2.15;0.60;;;;;;;24.57;43.19;99427.84;5022785;28;20312;-71
2023/08/03 11:22:04;;;;;;;1.52;0.60;;;;;;;24.51;43.88;99424.25;5038817;28;20206;-71
2023/08/03 11:24:31;;;;;;;0.82;0.40;;;;;;;24.36;44.78;99442.19;5037420;28;20211;-71
2023/08/03 11:26:57;;;;;;;0.98;0.40;;;;;;;24.31;44.52;99434.69;5039986;28;20217;-71
2023/08/03 11:29:24;;;;;;;1.67;0.50;;;;;;;24.19;45.45;99427.44;5041593;28;20728;-71
2023/08/03 11:31:51;;;;;;;2.33;0.40;;;;;;;24.31;47.26;99429.28;5044891;28;20276;-71
2023/08/03 11:34:19;;;;;;;1.48;0.40;;;;;;;24.43;45.34;99432.59;5041646;28;20709;-70
2023/08/03 11:36:48;;;;;;;0.85;0.40;;;;;;;24.55;45.07;99419.47;5041527;28;20601;-71